Aviation Digital Data Service (ADDS)

Output produced by METARs form (0404 UTC 06 December 2019)
found at http://www.aviationweather.gov/metar/data/
 
LFLC 060330Z AUTO 35005KT CAVOK 02/M01 Q1022 TEMPO 1500 MIFG
TAF LFLC 060200Z 0603/0703 18006KT CAVOK 
     PROB30 
     TEMPO 0603/0608 1500 MIFG 
     PROB40 
     TEMPO 0700/0703 RA BKN050